createdAt,value
2023-02-16T00:00:58.029Z,102243.98
2023-02-16T00:02:14.908Z,102242.20
2023-02-16T00:03:21.936Z,102243.12
2023-02-16T00:04:26.574Z,102241.05
2023-02-16T00:05:33.145Z,102239.29
2023-02-16T00:06:34.600Z,102237.69
2023-02-16T00:07:36.103Z,102237.50
2023-02-16T00:08:37.592Z,102236.30
2023-02-16T00:09:39.261Z,102236.56
2023-02-16T00:10:40.800Z,102233.86
2023-02-16T00:12:01.182Z,102233.86
2023-02-16T00:13:42.614Z,102231.52
2023-02-16T00:14:44.312Z,102232.77
2023-02-16T00:15:46.629Z,102232.52
2023-02-16T00:16:49.243Z,102231.73
2023-02-16T00:17:51.719Z,102231.89
2023-02-16T00:18:53.602Z,102231.00
2023-02-16T00:19:55.559Z,102229.35
2023-02-16T00:20:57.137Z,102227.77
2023-02-16T00:22:00.480Z,102225.45
2023-02-16T00:23:01.987Z,102222.17
2023-02-16T00:24:03.764Z,102223.21
2023-02-16T00:25:05.696Z,102219.63
2023-02-16T00:26:25.031Z,102220.90
2023-02-16T00:27:26.535Z,102219.75
2023-02-16T00:28:28.339Z,102217.36
2023-02-16T00:29:33.780Z,102221.16
2023-02-16T00:30:35.529Z,102222.42
2023-02-16T00:31:39.609Z,102220.64
2023-02-16T00:32:41.337Z,102216.66
2023-02-16T00:33:42.833Z,102217.68
2023-02-16T00:34:45.148Z,102219.42
2023-02-16T00:35:47.681Z,102220.05
2023-02-16T00:36:50.784Z,102221.72
2023-02-16T00:37:52.308Z,102221.84
2023-02-16T00:38:53.816Z,102220.67
2023-02-16T00:39:55.399Z,102216.50
2023-02-16T00:40:57.289Z,102215.98
2023-02-16T00:42:02.471Z,102214.58
2023-02-16T00:43:03.988Z,102215.45
2023-02-16T00:44:13.386Z,102213.30
2023-02-16T00:45:20.414Z,102210.48
2023-02-16T00:46:22.210Z,102210.48
2023-02-16T00:47:36.570Z,102209.99
2023-02-16T00:48:38.104Z,102210.70
2023-02-16T00:49:39.646Z,102209.38
2023-02-16T00:50:41.140Z,102210.02
2023-02-16T00:51:44.286Z,102210.92
2023-02-16T00:52:46.913Z,102206.52
2023-02-16T00:53:48.467Z,102207.05
2023-02-16T00:54:49.963Z,102206.33
2023-02-16T00:55:52.980Z,102205.85
2023-02-16T00:56:55.530Z,102204.00
2023-02-16T00:58:15.891Z,102198.41
2023-02-16T00:59:19.957Z,102196.60
2023-02-16T01:00:31.411Z,102194.63
2023-02-16T01:01:34.012Z,102189.52
2023-02-16T01:02:35.702Z,102193.02
2023-02-16T01:03:37.739Z,102187.98
2023-02-16T01:04:40.009Z,102192.77
2023-02-16T01:05:41.568Z,102195.28
2023-02-16T01:07:01.593Z,102192.40
2023-02-16T01:08:27.856Z,102192.81
2023-02-16T01:09:47.684Z,102189.94
2023-02-16T01:11:09.274Z,102186.23
2023-02-16T01:12:17.771Z,102186.10
2023-02-16T01:13:19.954Z,102183.41
2023-02-16T01:14:21.484Z,102182.73
2023-02-16T01:15:25.233Z,102184.00
2023-02-16T01:16:37.134Z,102180.79
2023-02-16T01:17:39.037Z,102176.16
2023-02-16T01:18:40.806Z,102175.38
2023-02-16T01:19:42.550Z,102173.14
2023-02-16T01:20:44.938Z,102171.32
2023-02-16T01:21:46.416Z,102172.00
2023-02-16T01:22:48.147Z,102169.42
2023-02-16T01:23:49.842Z,102166.80
2023-02-16T01:24:51.409Z,102168.52
2023-02-16T01:25:52.976Z,102164.14
2023-02-16T01:26:54.409Z,102160.15
2023-02-16T01:27:56.018Z,102164.45
2023-02-16T01:28:57.846Z,102159.91
2023-02-16T01:29:59.354Z,102164.34
2023-02-16T01:31:01.387Z,102160.55
2023-02-16T01:32:03.219Z,102155.90
2023-02-16T01:33:04.725Z,102154.27
2023-02-16T01:34:06.334Z,102155.85
2023-02-16T01:35:09.309Z,102152.80
2023-02-16T01:36:33.575Z,102152.17
2023-02-16T01:37:35.050Z,102152.30
2023-02-16T01:38:36.548Z,102153.23
2023-02-16T01:39:38.200Z,102153.41
2023-02-16T01:40:51.292Z,102148.39
2023-02-16T01:42:22.111Z,102145.73
2023-02-16T01:43:42.631Z,102145.08
2023-02-16T01:44:54.121Z,102138.49
2023-02-16T01:46:05.424Z,102143.27
2023-02-16T01:47:21.068Z,102141.29
2023-02-16T01:48:28.439Z,102140.39
2023-02-16T01:49:29.994Z,102134.73
2023-02-16T01:50:47.481Z,102133.36
2023-02-16T01:51:57.967Z,102124.92
2023-02-16T01:53:12.242Z,102121.34
2023-02-16T01:54:34.320Z,102119.80
2023-02-16T01:55:47.269Z,102122.60
2023-02-16T01:56:54.401Z,102116.88
2023-02-16T01:58:20.231Z,102117.11
2023-02-16T02:00:25.955Z,102118.90
2023-02-16T02:01:39.335Z,102115.36
2023-02-16T02:02:48.726Z,102113.52
2023-02-16T02:04:09.033Z,102108.96
2023-02-16T02:05:35.202Z,102111.79
2023-02-16T02:06:37.216Z,102106.39
2023-02-16T02:08:16.544Z,102104.63
2023-02-16T02:09:25.511Z,102102.52
2023-02-16T02:10:36.991Z,102106.22
2023-02-16T02:11:45.875Z,102108.16
2023-02-16T02:12:54.719Z,102104.21
2023-02-16T02:14:08.025Z,102106.52
2023-02-16T02:15:11.972Z,102103.99
2023-02-16T02:16:18.598Z,102109.73
2023-02-16T02:17:21.448Z,102106.16
2023-02-16T02:18:23.633Z,102107.55
2023-02-16T02:19:25.182Z,102102.17
2023-02-16T02:21:13.901Z,102104.47
2023-02-16T02:22:43.112Z,102106.08
2023-02-16T02:23:50.763Z,102099.48
2023-02-16T02:25:32.642Z,102103.95
2023-02-16T02:26:40.078Z,102099.52
2023-02-16T02:27:56.538Z,102097.46
2023-02-16T02:29:45.770Z,102096.71
2023-02-16T02:33:04.836Z,102086.64
2023-02-16T02:34:06.554Z,102080.19
2023-02-16T02:35:28.884Z,102077.66
2023-02-16T02:36:42.141Z,102071.86
2023-02-16T02:37:56.567Z,102074.08
2023-02-16T02:39:16.861Z,102074.36
2023-02-16T02:40:25.167Z,102069.48
2023-02-16T02:42:03.571Z,102068.45
2023-02-16T02:43:18.712Z,102064.29
2023-02-16T02:44:24.179Z,102065.30
2023-02-16T02:45:34.080Z,102064.46
2023-02-16T02:46:36.381Z,102063.94
2023-02-16T02:47:43.960Z,102064.80
2023-02-16T02:48:45.598Z,102065.16
2023-02-16T02:49:54.457Z,102067.09
2023-02-16T02:51:21.172Z,102065.62
2023-02-16T02:52:23.477Z,102063.91
2023-02-16T02:53:25.144Z,102065.31
2023-02-16T02:54:51.985Z,102063.33
2023-02-16T02:56:12.530Z,102059.02
2023-02-16T02:57:36.238Z,102057.12
2023-02-16T02:59:10.950Z,102053.80
2023-02-16T03:00:38.075Z,102050.14
2023-02-16T03:01:46.608Z,102048.96
2023-02-16T03:02:52.831Z,102044.71
2023-02-16T03:03:57.493Z,102040.69
2023-02-16T03:05:02.020Z,102038.09
2023-02-16T03:06:04.151Z,102032.48
2023-02-16T03:07:08.283Z,102032.49
2023-02-16T03:08:13.921Z,102029.29
2023-02-16T03:09:16.232Z,102032.39
2023-02-16T03:10:41.474Z,102033.95
2023-02-16T03:12:03.566Z,102028.95
2023-02-16T03:13:11.221Z,102029.31
2023-02-16T03:14:26.894Z,102029.73
2023-02-16T03:15:30.721Z,102030.09
2023-02-16T03:16:44.780Z,102030.22
2023-02-16T03:18:05.148Z,102030.59
2023-02-16T03:19:27.956Z,102029.86
2023-02-16T03:20:48.118Z,102023.74
2023-02-16T03:22:09.135Z,102027.31
2023-02-16T03:23:29.770Z,102030.41
2023-02-16T03:24:50.995Z,102030.86
2023-02-16T03:26:11.494Z,102026.23
2023-02-16T03:27:53.989Z,102028.38
2023-02-16T03:29:15.227Z,102024.71
2023-02-16T03:30:18.451Z,102028.62
2023-02-16T03:31:26.466Z,102028.28
2023-02-16T03:32:28.211Z,102028.92
2023-02-16T03:33:30.452Z,102031.61
2023-02-16T03:34:34.154Z,102033.36
2023-02-16T03:35:36.267Z,102033.59
2023-02-16T03:36:41.495Z,102037.61
2023-02-16T03:37:44.325Z,102039.77
2023-02-16T03:38:45.852Z,102041.78
2023-02-16T03:40:06.735Z,102044.70
2023-02-16T03:41:08.377Z,102041.50
2023-02-16T03:42:10.085Z,102043.70
2023-02-16T03:43:11.553Z,102046.30
2023-02-16T03:44:13.115Z,102044.59
2023-02-16T03:45:14.810Z,102043.41
2023-02-16T03:46:16.896Z,102040.86
2023-02-16T03:47:18.620Z,102044.30
2023-02-16T03:48:20.633Z,102043.00
2023-02-16T03:49:22.154Z,102041.41
2023-02-16T03:50:25.798Z,102035.44
2023-02-16T03:51:27.891Z,102037.84
2023-02-16T03:52:29.546Z,102036.84
2023-02-16T03:53:31.145Z,102040.27
2023-02-16T03:54:32.643Z,102039.48
2023-02-16T03:55:42.192Z,102036.90
2023-02-16T03:56:43.996Z,102035.17
2023-02-16T03:57:45.782Z,102032.33
2023-02-16T03:58:47.296Z,102034.70
2023-02-16T03:59:50.172Z,102029.51
2023-02-16T04:00:52.922Z,102028.00
2023-02-16T04:01:54.642Z,102026.02
2023-02-16T04:02:56.325Z,102023.13
2023-02-16T04:03:57.989Z,102018.30
2023-02-16T04:04:59.705Z,102015.91
2023-02-16T04:06:01.856Z,102013.79
2023-02-16T04:07:03.391Z,102013.70
2023-02-16T04:08:05.671Z,102010.84
2023-02-16T04:09:07.176Z,102011.64
2023-02-16T04:10:08.899Z,102009.22
2023-02-16T04:11:28.811Z,102005.73
2023-02-16T04:12:36.018Z,102011.48
2023-02-16T04:13:37.588Z,102011.98
2023-02-16T04:14:39.093Z,102009.44
2023-02-16T04:15:40.944Z,102013.83
2023-02-16T04:16:42.545Z,102005.85
2023-02-16T04:17:44.448Z,102007.95
2023-02-16T04:18:46.101Z,102002.82
2023-02-16T04:19:47.777Z,101999.25
2023-02-16T04:20:49.347Z,101992.46
2023-02-16T04:21:52.385Z,101994.84
2023-02-16T04:22:54.669Z,101990.39
2023-02-16T04:23:56.387Z,101992.09
2023-02-16T04:24:57.884Z,101991.96
2023-02-16T04:25:59.396Z,101992.33
2023-02-16T04:27:00.966Z,101992.84
2023-02-16T04:28:02.513Z,101991.73
2023-02-16T04:29:04.252Z,101993.14
2023-02-16T04:30:08.779Z,101989.23
2023-02-16T04:31:10.452Z,101993.14
2023-02-16T04:32:12.154Z,101996.18
2023-02-16T04:33:14.065Z,101995.59
2023-02-16T04:34:15.787Z,101993.06
2023-02-16T04:35:18.347Z,101990.29
2023-02-16T04:36:19.791Z,101986.88
2023-02-16T04:37:21.292Z,101985.02
2023-02-16T04:38:22.975Z,101986.76
2023-02-16T04:39:24.574Z,101987.39
2023-02-16T04:40:26.040Z,101984.91
2023-02-16T04:41:27.562Z,101984.99
2023-02-16T04:42:29.018Z,101984.94
2023-02-16T04:43:31.741Z,101983.49
2023-02-16T04:44:33.479Z,101983.83
2023-02-16T04:45:34.938Z,101982.48
2023-02-16T04:46:36.417Z,101981.41
2023-02-16T04:47:37.958Z,101979.34
2023-02-16T04:48:39.595Z,101978.47
2023-02-16T04:49:41.283Z,101977.49
2023-02-16T04:50:42.803Z,101978.50
2023-02-16T04:51:44.264Z,101974.92
2023-02-16T04:52:45.831Z,101977.12
2023-02-16T04:53:47.371Z,101978.67
2023-02-16T04:54:49.088Z,101982.73
2023-02-16T04:55:50.563Z,101982.78
2023-02-16T04:56:52.141Z,101981.13
2023-02-16T04:57:53.662Z,101983.48
2023-02-16T04:58:55.419Z,101981.23
2023-02-16T04:59:57.053Z,101977.52
2023-02-16T05:00:58.499Z,101980.56
2023-02-16T05:02:00.012Z,101975.42
2023-02-16T05:03:01.896Z,101973.88
2023-02-16T05:04:03.922Z,101973.04
2023-02-16T05:05:06.205Z,101971.17
2023-02-16T05:06:07.690Z,101969.23
2023-02-16T05:07:09.234Z,101968.01
2023-02-16T05:08:10.723Z,101966.66
2023-02-16T05:09:12.271Z,101963.45
2023-02-16T05:10:14.064Z,101968.46
2023-02-16T05:11:33.983Z,101970.41
2023-02-16T05:12:54.527Z,101967.30
2023-02-16T05:14:16.606Z,101965.83
2023-02-16T05:15:18.258Z,101960.81
2023-02-16T05:16:21.567Z,101963.98
2023-02-16T05:17:25.838Z,101961.79
2023-02-16T05:18:27.317Z,101962.26
2023-02-16T05:19:29.019Z,101958.41
2023-02-16T05:20:49.459Z,101959.17
2023-02-16T05:21:50.963Z,101957.07
2023-02-16T05:22:52.476Z,101963.84
2023-02-16T05:23:53.943Z,101966.52
2023-02-16T05:24:56.115Z,101966.64
2023-02-16T05:25:58.071Z,101965.16
2023-02-16T05:27:01.140Z,101966.92
2023-02-16T05:28:02.875Z,101965.34
2023-02-16T05:29:05.070Z,101966.66
2023-02-16T05:30:07.371Z,101967.45
2023-02-16T05:31:09.466Z,101967.20
2023-02-16T05:32:11.241Z,101961.65
2023-02-16T05:33:12.726Z,101961.11
2023-02-16T05:34:14.387Z,101962.20
2023-02-16T05:35:16.138Z,101965.33
2023-02-16T05:36:17.854Z,101965.21
2023-02-16T05:37:19.525Z,101967.84
2023-02-16T05:38:20.999Z,101965.96
2023-02-16T05:39:22.632Z,101964.48
2023-02-16T05:40:24.298Z,101971.19
2023-02-16T05:41:26.240Z,101972.91
2023-02-16T05:42:27.951Z,101973.59
2023-02-16T05:43:29.580Z,101972.24
2023-02-16T05:44:31.131Z,101972.29
2023-02-16T05:45:32.708Z,101972.91
2023-02-16T05:46:37.403Z,101972.40
2023-02-16T05:47:39.095Z,101973.42
2023-02-16T05:48:40.627Z,101971.98
2023-02-16T05:49:42.383Z,101972.12
2023-02-16T05:50:43.955Z,101977.30
2023-02-16T05:51:45.835Z,101975.64
2023-02-16T05:52:47.401Z,101976.08
2023-02-16T05:53:48.978Z,101977.11
2023-02-16T05:54:50.527Z,101978.22
2023-02-16T05:55:52.853Z,101979.23
2023-02-16T05:56:55.042Z,101977.95
2023-02-16T05:57:56.481Z,101976.35
2023-02-16T05:59:00.651Z,101976.92
2023-02-16T06:00:04.440Z,101977.54
2023-02-16T06:01:06.599Z,101976.41
2023-02-16T06:02:09.267Z,101980.70
2023-02-16T06:03:10.679Z,101976.91
2023-02-16T06:04:14.277Z,101977.40
2023-02-16T06:05:16.064Z,101976.86
2023-02-16T06:06:17.829Z,101971.84
2023-02-16T06:07:19.761Z,101970.49
2023-02-16T06:08:21.538Z,101966.91
2023-02-16T06:09:23.173Z,101965.14
2023-02-16T06:10:26.246Z,101962.41
2023-02-16T06:11:36.799Z,101960.35
2023-02-16T06:12:38.774Z,101959.94
2023-02-16T06:13:40.214Z,101961.07
2023-02-16T06:14:41.673Z,101960.89
2023-02-16T06:15:43.323Z,101959.43
2023-02-16T06:16:48.525Z,101957.74
2023-02-16T06:17:50.274Z,101956.36
2023-02-16T06:18:52.482Z,101956.02
2023-02-16T06:19:54.394Z,101959.56
2023-02-16T06:20:56.604Z,101959.09
2023-02-16T06:21:58.031Z,101960.66
2023-02-16T06:22:59.780Z,101959.63
2023-02-16T06:24:01.796Z,101954.58
2023-02-16T06:25:03.351Z,101949.07
2023-02-16T06:26:04.814Z,101945.25
2023-02-16T06:27:06.636Z,101943.42
2023-02-16T06:28:08.626Z,101942.77
2023-02-16T06:29:10.574Z,101938.40
2023-02-16T06:30:12.658Z,101939.15
2023-02-16T06:31:14.329Z,101943.66
2023-02-16T06:32:17.573Z,101946.83
2023-02-16T06:33:19.414Z,101941.44
2023-02-16T06:34:20.834Z,101936.17
2023-02-16T06:35:22.351Z,101937.09
2023-02-16T06:36:24.417Z,101934.02
2023-02-16T06:37:26.054Z,101936.00
2023-02-16T06:38:27.873Z,101942.85
2023-02-16T06:39:29.453Z,101942.83
2023-02-16T06:40:30.964Z,101941.70
2023-02-16T06:41:37.117Z,101950.27
2023-02-16T06:42:38.613Z,101953.63
2023-02-16T06:43:40.407Z,101950.18
2023-02-16T06:44:43.691Z,101944.90
2023-02-16T06:45:45.839Z,101945.70
2023-02-16T06:46:48.077Z,101948.86
2023-02-16T06:47:49.663Z,101946.94
2023-02-16T06:48:51.349Z,101945.60
2023-02-16T06:49:52.817Z,101944.38
2023-02-16T06:50:54.593Z,101940.63
2023-02-16T06:51:56.141Z,101945.68
2023-02-16T06:52:57.662Z,101943.98
2023-02-16T06:53:59.565Z,101946.45
2023-02-16T06:55:01.426Z,101948.14
2023-02-16T06:56:03.179Z,101948.59
2023-02-16T06:57:04.618Z,101948.98
2023-02-16T06:58:06.763Z,101949.77
2023-02-16T06:59:10.530Z,101952.48
2023-02-16T07:00:12.909Z,101943.73
2023-02-16T07:01:14.862Z,101940.55
2023-02-16T07:02:16.394Z,101938.15
2023-02-16T07:03:17.922Z,101937.33
2023-02-16T07:04:19.797Z,101935.73
2023-02-16T07:05:21.292Z,101937.27
2023-02-16T07:06:24.922Z,101930.34
2023-02-16T07:07:26.525Z,101935.59
2023-02-16T07:08:28.147Z,101933.33
2023-02-16T07:09:29.749Z,101929.67
2023-02-16T07:10:43.894Z,101929.05
2023-02-16T07:11:50.331Z,101928.51
2023-02-16T07:12:51.735Z,101928.13
2023-02-16T07:13:53.200Z,101922.52
2023-02-16T07:14:54.959Z,101921.16
2023-02-16T07:15:57.012Z,101923.30
2023-02-16T07:17:02.516Z,101920.22
2023-02-16T07:18:04.955Z,101919.66
2023-02-16T07:19:06.902Z,101915.35
2023-02-16T07:20:08.919Z,101916.16
2023-02-16T07:21:10.481Z,101914.71
2023-02-16T07:22:12.020Z,101917.92
2023-02-16T07:23:13.548Z,101909.73
2023-02-16T07:24:15.122Z,101909.18
2023-02-16T07:25:16.989Z,101907.02
2023-02-16T07:26:18.613Z,101908.84
2023-02-16T07:27:20.036Z,101911.27
2023-02-16T07:28:21.577Z,101908.59
2023-02-16T07:29:23.118Z,101915.33
2023-02-16T07:30:24.872Z,101917.23
2023-02-16T07:31:26.608Z,101921.83
2023-02-16T07:32:28.954Z,101918.35
2023-02-16T07:33:30.476Z,101918.55
2023-02-16T07:34:32.252Z,101916.59
2023-02-16T07:35:34.941Z,101913.33
2023-02-16T07:36:36.465Z,101908.17
2023-02-16T07:37:38.170Z,101902.50
2023-02-16T07:38:45.266Z,101902.56
2023-02-16T07:40:16.542Z,101901.23
2023-02-16T07:41:19.147Z,101904.38
2023-02-16T07:42:21.122Z,101912.01
2023-02-16T07:43:23.633Z,101913.61
2023-02-16T07:44:25.125Z,101912.35
2023-02-16T07:45:27.259Z,101913.65
2023-02-16T07:46:28.820Z,101917.73
2023-02-16T07:48:49.569Z,101918.02
2023-02-16T07:49:52.469Z,101918.39
2023-02-16T07:50:55.338Z,101918.26
2023-02-16T07:51:58.386Z,101920.52
2023-02-16T07:53:02.853Z,101916.91
2023-02-16T07:54:06.137Z,101925.69
2023-02-16T07:55:10.061Z,101934.30
2023-02-16T07:56:27.716Z,101931.30
2023-02-16T07:57:30.757Z,101928.27
2023-02-16T07:58:33.638Z,101925.79
2023-02-16T07:59:36.485Z,101924.51
2023-02-16T08:00:39.341Z,101930.29
2023-02-16T08:01:42.588Z,101928.08
2023-02-16T08:02:45.899Z,101928.30
2023-02-16T08:03:49.339Z,101933.00
2023-02-16T08:04:52.957Z,101933.82
2023-02-16T08:05:55.923Z,101934.48
2023-02-16T08:06:58.840Z,101928.84
2023-02-16T08:08:01.927Z,101929.99
2023-02-16T08:09:05.274Z,101930.10
2023-02-16T08:10:09.021Z,101931.60
2023-02-16T08:11:12.927Z,101930.03
2023-02-16T08:12:17.105Z,101931.40
2023-02-16T08:13:20.419Z,101927.11
2023-02-16T08:14:23.313Z,101929.91
2023-02-16T08:15:26.208Z,101928.32
2023-02-16T08:16:29.575Z,101927.91
2023-02-16T08:17:32.492Z,101923.18
2023-02-16T08:18:35.725Z,101927.62
2023-02-16T08:19:38.903Z,101926.00
2023-02-16T08:21:03.320Z,101927.12
2023-02-16T08:22:06.178Z,101928.36
2023-02-16T08:23:10.384Z,101932.58
2023-02-16T08:24:13.817Z,101935.43
2023-02-16T08:25:16.728Z,101937.06
2023-02-16T08:26:21.188Z,101942.02
2023-02-16T08:27:24.921Z,101942.16
2023-02-16T08:28:28.967Z,101941.66
2023-02-16T08:29:32.829Z,101940.21
2023-02-16T08:30:36.293Z,101938.42
2023-02-16T08:31:39.642Z,101937.88
2023-02-16T08:32:43.660Z,101938.73
2023-02-16T08:33:48.028Z,101937.11
2023-02-16T08:34:51.359Z,101934.31
2023-02-16T08:35:54.203Z,101929.52
2023-02-16T08:36:57.693Z,101928.52
2023-02-16T08:38:02.398Z,101928.23
2023-02-16T08:39:17.251Z,101934.75
2023-02-16T08:40:24.690Z,101934.89
2023-02-16T08:41:36.223Z,101931.01
2023-02-16T08:42:39.415Z,101932.21
2023-02-16T08:43:42.388Z,101928.00
2023-02-16T08:44:45.410Z,101926.08
2023-02-16T08:45:49.256Z,101922.75
2023-02-16T08:46:55.169Z,101918.81
2023-02-16T08:48:01.334Z,101918.98
2023-02-16T08:49:04.197Z,101911.86
2023-02-16T08:50:07.851Z,101903.84
2023-02-16T08:51:20.330Z,101902.61
2023-02-16T08:52:23.241Z,101907.06
2023-02-16T08:53:28.063Z,101905.09
2023-02-16T08:54:33.524Z,101906.06
2023-02-16T08:55:36.565Z,101907.46
2023-02-16T08:56:39.885Z,101904.58
2023-02-16T08:57:42.880Z,101905.31
2023-02-16T08:58:47.150Z,101901.90
2023-02-16T09:00:10.022Z,101903.55
2023-02-16T09:01:15.343Z,101908.66
2023-02-16T09:02:18.443Z,101908.02
2023-02-16T09:03:22.329Z,101909.15
2023-02-16T09:04:25.775Z,101907.71
2023-02-16T09:05:28.759Z,101907.14
2023-02-16T09:06:31.668Z,101906.27
2023-02-16T09:07:35.129Z,101901.94
2023-02-16T09:08:38.662Z,101897.30
2023-02-16T09:09:42.785Z,101890.14
2023-02-16T09:10:46.032Z,101888.17
2023-02-16T09:11:49.490Z,101888.40
2023-02-16T09:12:52.534Z,101891.78
2023-02-16T09:13:55.696Z,101889.52
2023-02-16T09:14:58.547Z,101886.51
2023-02-16T09:16:09.878Z,101890.85
2023-02-16T09:17:12.837Z,101894.84
2023-02-16T09:18:16.609Z,101896.77
2023-02-16T09:19:21.380Z,101898.17
2023-02-16T09:20:24.387Z,101900.98
2023-02-16T09:21:28.349Z,101900.36
2023-02-16T09:22:31.741Z,101903.88
2023-02-16T09:23:35.796Z,101897.77
2023-02-16T09:24:38.922Z,101899.36
2023-02-16T09:25:42.117Z,101905.88
2023-02-16T09:26:45.008Z,101902.45
2023-02-16T09:27:48.015Z,101898.83
2023-02-16T09:28:53.384Z,101898.48
2023-02-16T09:29:58.690Z,101900.38
2023-02-16T09:31:11.666Z,101898.16
2023-02-16T09:32:15.504Z,101896.75
2023-02-16T09:33:18.465Z,101894.92
2023-02-16T09:34:23.419Z,101892.17
2023-02-16T09:35:27.220Z,101891.65
2023-02-16T09:36:30.846Z,101892.42
2023-02-16T09:37:33.689Z,101888.91
2023-02-16T09:38:39.670Z,101889.15
2023-02-16T09:39:42.794Z,101887.23
2023-02-16T09:40:45.719Z,101884.95
2023-02-16T09:42:24.465Z,101881.80
2023-02-16T09:43:49.378Z,101878.25
2023-02-16T09:45:11.687Z,101879.23
2023-02-16T09:46:22.509Z,101881.14
2023-02-16T09:47:31.556Z,101876.77
2023-02-16T09:48:43.124Z,101874.57
2023-02-16T09:49:47.113Z,101874.48
2023-02-16T09:50:54.874Z,101873.66
2023-02-16T09:52:27.242Z,101879.26
2023-02-16T09:53:41.896Z,101878.36
2023-02-16T09:54:50.441Z,101877.67
2023-02-16T09:56:22.648Z,101871.80
2023-02-16T09:57:31.422Z,101870.65
2023-02-16T09:58:45.323Z,101873.61
2023-02-16T09:59:56.447Z,101871.53
2023-02-16T10:01:29.066Z,101868.13
2023-02-16T10:02:54.662Z,101868.58
2023-02-16T10:04:16.745Z,101860.96
2023-02-16T10:05:42.382Z,101861.91
2023-02-16T10:07:07.565Z,101865.58
2023-02-16T10:08:15.679Z,101869.72
2023-02-16T10:09:20.628Z,101869.52
2023-02-16T10:10:29.695Z,101869.45
2023-02-16T10:11:51.549Z,101868.08
2023-02-16T10:13:05.286Z,101871.93
2023-02-16T10:14:23.215Z,101872.61
2023-02-16T10:15:30.439Z,101872.48
2023-02-16T10:16:42.851Z,101877.77
2023-02-16T10:17:52.192Z,101874.40
2023-02-16T10:18:56.601Z,101869.91
2023-02-16T10:20:13.105Z,101867.45
2023-02-16T10:21:22.367Z,101865.02
2023-02-16T10:22:44.367Z,101865.40
2023-02-16T10:24:02.196Z,101871.17
2023-02-16T10:25:16.981Z,101876.73
2023-02-16T10:27:02.596Z,101874.22
2023-02-16T10:28:16.560Z,101870.77
2023-02-16T10:29:23.346Z,101871.45
2023-02-16T10:30:32.562Z,101873.56
2023-02-16T10:31:44.674Z,101870.17
2023-02-16T10:32:56.738Z,101865.08
2023-02-16T10:34:27.640Z,101866.44
2023-02-16T10:35:46.200Z,101865.38
2023-02-16T10:37:02.345Z,101863.21
2023-02-16T10:38:18.371Z,101860.77
2023-02-16T10:39:42.576Z,101860.67
2023-02-16T10:41:12.277Z,101858.19
2023-02-16T10:42:43.790Z,101860.75
2023-02-16T10:43:53.094Z,101857.80
2023-02-16T10:45:34.833Z,101860.73
2023-02-16T10:46:43.076Z,101859.66
2023-02-16T10:47:47.287Z,101859.40
2023-02-16T10:48:54.526Z,101858.04
2023-02-16T10:49:57.999Z,101857.83
2023-02-16T10:51:16.741Z,101856.52
2023-02-16T10:52:21.141Z,101852.80
2023-02-16T10:53:52.458Z,101849.02
2023-02-16T10:54:56.302Z,101848.25
2023-02-16T10:55:59.667Z,101847.05
2023-02-16T10:57:30.029Z,101847.66
2023-02-16T10:58:42.033Z,101846.09
2023-02-16T10:59:46.996Z,101846.21
2023-02-16T11:00:58.619Z,101848.20
2023-02-16T11:02:04.526Z,101843.52
2023-02-16T11:03:12.441Z,101842.20
2023-02-16T11:04:34.664Z,101841.52
2023-02-16T11:05:39.804Z,101840.47
2023-02-16T11:06:42.766Z,101840.52
2023-02-16T11:07:57.497Z,101837.09
2023-02-16T11:09:03.164Z,101834.46
2023-02-16T11:10:20.858Z,101828.73
2023-02-16T11:11:27.839Z,101829.00
2023-02-16T11:12:35.329Z,101831.80
2023-02-16T11:13:38.540Z,101832.45
2023-02-16T11:14:48.749Z,101833.09
2023-02-16T11:15:54.822Z,101829.70
2023-02-16T11:17:12.684Z,101836.52
2023-02-16T11:18:30.398Z,101836.04
2023-02-16T11:19:35.465Z,101833.74
2023-02-16T11:20:42.252Z,101833.29
2023-02-16T11:21:56.507Z,101831.13
2023-02-16T11:23:14.645Z,101828.08
2023-02-16T11:24:38.279Z,101830.95
2023-02-16T11:25:42.577Z,101833.82
2023-02-16T11:27:01.098Z,101831.99
2023-02-16T11:28:05.397Z,101823.59
2023-02-16T11:29:19.986Z,101824.07
2023-02-16T11:30:43.571Z,101820.96
2023-02-16T11:31:46.916Z,101818.47
2023-02-16T11:32:51.923Z,101818.93
2023-02-16T11:34:24.227Z,101817.34
2023-02-16T11:35:27.621Z,101816.14
2023-02-16T11:36:47.340Z,101814.35
2023-02-16T11:37:51.121Z,101812.16
2023-02-16T11:39:14.061Z,101809.77
2023-02-16T11:40:24.663Z,101808.43
2023-02-16T11:41:31.731Z,101808.64
2023-02-16T11:42:47.458Z,101808.56
2023-02-16T11:43:50.592Z,101806.36
2023-02-16T11:44:57.173Z,101804.11
2023-02-16T11:46:05.113Z,101803.73
2023-02-16T11:47:36.644Z,101797.86
2023-02-16T11:48:39.630Z,101792.52
2023-02-16T11:49:42.750Z,101795.73
2023-02-16T11:50:57.111Z,101792.98
2023-02-16T11:52:01.611Z,101787.41
2023-02-16T11:53:10.445Z,101784.95
2023-02-16T11:54:17.997Z,101784.05
2023-02-16T11:55:28.066Z,101783.27
2023-02-16T11:56:34.423Z,101774.40
2023-02-16T11:57:38.794Z,101774.31
2023-02-16T11:58:41.694Z,101773.02
2023-02-16T11:59:44.573Z,101773.23
2023-02-16T12:01:04.626Z,101766.65
2023-02-16T12:02:10.805Z,101769.48
2023-02-16T12:03:48.080Z,101773.56
2023-02-16T12:05:31.937Z,101769.31
2023-02-16T12:06:43.092Z,101768.00
2023-02-16T12:08:20.593Z,101763.55
2023-02-16T12:10:00.196Z,101763.35
2023-02-16T12:11:15.977Z,101761.54
2023-02-16T12:12:43.739Z,101764.23
2023-02-16T12:14:04.412Z,101761.99
2023-02-16T12:15:25.757Z,101760.91
2023-02-16T12:16:40.990Z,101751.77
2023-02-16T12:18:15.379Z,101749.27
2023-02-16T12:19:41.894Z,101749.16
2023-02-16T12:20:54.839Z,101750.36
2023-02-16T12:22:24.512Z,101749.26
2023-02-16T12:23:39.046Z,101746.31
2023-02-16T12:25:03.904Z,101743.09
2023-02-16T12:26:07.270Z,101744.20
2023-02-16T12:27:18.585Z,101742.77
2023-02-16T12:29:00.106Z,101745.45
2023-02-16T12:30:08.193Z,101746.21
2023-02-16T12:31:47.549Z,101740.88
2023-02-16T12:33:15.924Z,101742.06
2023-02-16T12:34:47.084Z,101738.39
2023-02-16T12:36:12.359Z,101743.27
2023-02-16T12:38:13.080Z,101742.84
2023-02-16T12:39:29.951Z,101735.21
2023-02-16T12:40:46.605Z,101735.23
2023-02-16T12:42:21.115Z,101738.46
2023-02-16T12:43:24.188Z,101738.56
2023-02-16T12:44:42.786Z,101738.94
2023-02-16T12:45:47.241Z,101735.17
2023-02-16T12:47:00.703Z,101737.10
2023-02-16T12:48:40.197Z,101733.82
2023-02-16T12:49:55.483Z,101738.19
2023-02-16T12:51:02.683Z,101739.65
2023-02-16T12:52:29.620Z,101737.84
2023-02-16T12:53:57.060Z,101739.98
2023-02-16T12:55:20.765Z,101739.13
2023-02-16T12:56:31.277Z,101741.88
2023-02-16T12:57:34.910Z,101741.39
2023-02-16T12:58:42.530Z,101740.65
2023-02-16T12:59:59.573Z,101738.06